createdAt,value
2023-05-18T00:00:01.777Z,8.96
2023-05-18T00:01:01.792Z,8.99
2023-05-18T00:02:01.807Z,8.93
2023-05-18T00:03:01.962Z,8.95
2023-05-18T00:04:01.939Z,8.86
2023-05-18T00:05:01.856Z,8.89
2023-05-18T00:06:01.869Z,8.90
2023-05-18T00:07:01.879Z,8.84
2023-05-18T00:08:01.890Z,8.79
2023-05-18T00:09:01.919Z,8.87
2023-05-18T00:10:02.081Z,8.84
2023-05-18T00:11:01.933Z,8.79
2023-05-18T00:12:01.951Z,8.82
2023-05-18T00:13:01.970Z,8.77
2023-05-18T00:14:01.980Z,8.75
2023-05-18T00:15:02.001Z,8.75
2023-05-18T00:16:02.084Z,8.71
2023-05-18T00:17:02.112Z,8.71
2023-05-18T00:18:02.088Z,8.72
2023-05-18T00:19:02.115Z,8.69
2023-05-18T00:20:02.067Z,8.71
2023-05-18T00:21:02.406Z,8.59
2023-05-18T00:22:02.095Z,8.59
2023-05-18T00:23:02.107Z,8.59
2023-05-18T00:24:02.117Z,8.57
2023-05-18T00:25:02.146Z,8.56
2023-05-18T00:26:02.144Z,8.57
2023-05-18T00:27:02.188Z,8.45
2023-05-18T00:28:02.170Z,8.49
2023-05-18T00:29:02.186Z,8.52
2023-05-18T00:30:02.214Z,8.54
2023-05-18T00:31:02.214Z,8.56
2023-05-18T00:32:02.358Z,8.49
2023-05-18T00:33:02.350Z,8.44
2023-05-18T00:34:02.276Z,8.45
2023-05-18T00:35:02.275Z,8.46
2023-05-18T00:36:02.291Z,8.41
2023-05-18T00:37:02.315Z,8.39
2023-05-18T00:38:02.313Z,8.36
2023-05-18T00:39:02.331Z,8.42
2023-05-18T00:40:02.353Z,8.39
2023-05-18T00:41:02.365Z,8.39
2023-05-18T00:42:02.370Z,8.38
2023-05-18T00:43:02.392Z,8.35
2023-05-18T00:44:02.402Z,8.41
2023-05-18T00:45:02.416Z,8.50
2023-05-18T00:46:02.479Z,8.41
2023-05-18T00:47:02.454Z,8.38
2023-05-18T00:48:02.504Z,8.41
2023-05-18T00:49:02.486Z,8.41
2023-05-18T00:50:02.480Z,8.42
2023-05-18T00:51:02.503Z,8.42
2023-05-18T00:52:02.510Z,8.42
2023-05-18T00:53:02.524Z,8.31
2023-05-18T00:54:02.544Z,8.41
2023-05-18T00:55:02.557Z,8.32
2023-05-18T00:56:02.568Z,8.28
2023-05-18T00:57:02.591Z,8.39
2023-05-18T00:58:02.669Z,8.31
2023-05-18T00:59:02.609Z,8.32
2023-05-18T01:00:02.622Z,8.26
2023-05-18T01:01:02.694Z,8.28
2023-05-18T01:02:02.684Z,8.28
2023-05-18T01:03:02.786Z,8.31
2023-05-18T01:04:02.736Z,8.32
2023-05-18T01:05:02.689Z,8.32
2023-05-18T01:06:02.707Z,8.27
2023-05-18T01:07:02.718Z,8.28
2023-05-18T01:08:02.728Z,8.41
2023-05-18T01:09:02.767Z,8.31
2023-05-18T01:10:02.769Z,8.26
2023-05-18T01:11:02.827Z,8.31
2023-05-18T01:12:02.786Z,8.38
2023-05-18T01:13:02.867Z,8.31
2023-05-18T01:14:02.812Z,8.31
2023-05-18T01:15:02.840Z,8.44
2023-05-18T01:16:02.847Z,8.39
2023-05-18T01:17:02.911Z,8.27
2023-05-18T01:18:02.879Z,8.27
2023-05-18T01:19:02.914Z,8.32
2023-05-18T01:20:02.907Z,8.35
2023-05-18T01:21:02.904Z,8.38
2023-05-18T01:22:02.929Z,8.39
2023-05-18T01:23:02.937Z,8.44
2023-05-18T01:24:02.948Z,8.24
2023-05-18T01:25:02.963Z,8.26
2023-05-18T01:26:02.978Z,8.38
2023-05-18T01:27:02.988Z,8.26
2023-05-18T01:28:03.000Z,8.34
2023-05-18T01:29:03.030Z,8.26
2023-05-18T01:30:03.031Z,8.44
2023-05-18T01:31:03.078Z,8.26
2023-05-18T01:32:03.057Z,8.27
2023-05-18T01:33:03.182Z,8.27
2023-05-18T01:34:03.096Z,8.28
2023-05-18T01:35:03.153Z,8.36
2023-05-18T01:36:03.117Z,8.38
2023-05-18T01:37:03.124Z,8.35
2023-05-18T01:38:03.145Z,8.27
2023-05-18T01:39:03.158Z,8.31
2023-05-18T01:40:03.171Z,8.39
2023-05-18T01:41:03.178Z,8.42
2023-05-18T01:42:03.200Z,8.38
2023-05-18T01:43:03.206Z,8.44
2023-05-18T01:44:03.253Z,8.41
2023-05-18T01:45:03.250Z,8.36
2023-05-18T01:46:03.285Z,8.36
2023-05-18T01:47:03.264Z,8.39
2023-05-18T01:48:03.340Z,8.35
2023-05-18T01:49:03.291Z,8.35
2023-05-18T01:50:03.344Z,8.41
2023-05-18T01:51:03.326Z,8.39
2023-05-18T01:52:03.335Z,8.41
2023-05-18T01:53:03.343Z,8.42
2023-05-18T01:54:03.357Z,8.42
2023-05-18T01:55:03.416Z,8.36
2023-05-18T01:56:03.388Z,8.44
2023-05-18T01:57:03.400Z,8.41
2023-05-18T01:58:03.426Z,8.39
2023-05-18T01:59:03.432Z,8.39
2023-05-18T02:00:03.438Z,8.34
2023-05-18T02:01:03.451Z,8.31
2023-05-18T02:02:03.633Z,8.32
2023-05-18T02:03:03.576Z,8.26
2023-05-18T02:04:03.552Z,8.23
2023-05-18T02:05:03.514Z,8.28
2023-05-18T02:06:03.520Z,8.32
2023-05-18T02:07:03.553Z,8.26
2023-05-18T02:08:03.559Z,8.32
2023-05-18T02:09:03.561Z,8.28
2023-05-18T02:10:03.575Z,8.23
2023-05-18T02:11:03.584Z,8.31
2023-05-18T02:12:03.600Z,8.28
2023-05-18T02:13:03.616Z,8.24
2023-05-18T02:14:03.629Z,8.26
2023-05-18T02:15:03.638Z,8.24
2023-05-18T02:16:03.688Z,8.20
2023-05-18T02:17:03.670Z,8.20
2023-05-18T02:18:03.716Z,8.23
2023-05-18T02:19:03.804Z,8.21
2023-05-18T02:20:03.708Z,8.18
2023-05-18T02:21:03.719Z,8.20
2023-05-18T02:22:03.734Z,8.21
2023-05-18T02:23:03.747Z,8.18
2023-05-18T02:24:03.754Z,8.17
2023-05-18T02:25:03.779Z,8.14
2023-05-18T02:26:03.800Z,8.13
2023-05-18T02:27:03.799Z,8.11
2023-05-18T02:28:03.811Z,8.09
2023-05-18T02:29:03.837Z,8.13
2023-05-18T02:30:03.838Z,8.05
2023-05-18T02:31:03.878Z,8.13
2023-05-18T02:32:03.912Z,8.14
2023-05-18T02:33:03.912Z,8.02
2023-05-18T02:34:03.894Z,8.08
2023-05-18T02:35:03.956Z,8.02
2023-05-18T02:36:03.918Z,8.03
2023-05-18T02:37:03.927Z,8.02
2023-05-18T02:38:03.946Z,8.01
2023-05-18T02:39:03.967Z,8.02
2023-05-18T02:40:03.984Z,8.03
2023-05-18T02:41:03.984Z,8.01
2023-05-18T02:42:04.001Z,8.05
2023-05-18T02:43:04.012Z,8.01
2023-05-18T02:44:04.031Z,8.02
2023-05-18T02:45:04.039Z,7.96
2023-05-18T02:46:04.072Z,7.96
2023-05-18T02:47:04.068Z,8.01
2023-05-18T02:48:04.120Z,7.93
2023-05-18T02:49:04.092Z,7.96
2023-05-18T02:50:04.116Z,7.90
2023-05-18T02:51:04.120Z,7.96
2023-05-18T02:52:04.137Z,7.98
2023-05-18T02:53:04.149Z,7.90
2023-05-18T02:54:04.163Z,7.95
2023-05-18T02:55:04.177Z,8.03
2023-05-18T02:56:04.201Z,7.93
2023-05-18T02:57:04.202Z,7.93
2023-05-18T02:58:04.218Z,7.91
2023-05-18T02:59:05.072Z,7.91
2023-05-18T03:00:04.248Z,7.91
2023-05-18T03:01:04.284Z,7.91
2023-05-18T03:02:04.286Z,7.93
2023-05-18T03:03:04.422Z,7.84
2023-05-18T03:04:04.299Z,7.91
2023-05-18T03:05:04.310Z,7.87
2023-05-18T03:06:04.321Z,7.88
2023-05-18T03:07:04.353Z,7.93
2023-05-18T03:08:04.352Z,7.84
2023-05-18T03:09:04.365Z,7.84
2023-05-18T03:10:04.418Z,7.81
2023-05-18T03:11:04.393Z,7.87
2023-05-18T03:12:04.404Z,7.83
2023-05-18T03:13:04.419Z,7.87
2023-05-18T03:14:04.442Z,7.84
2023-05-18T03:15:04.445Z,7.77
2023-05-18T03:16:04.480Z,7.75
2023-05-18T03:17:04.582Z,7.80
2023-05-18T03:18:04.529Z,7.75
2023-05-18T03:19:04.555Z,7.80
2023-05-18T03:20:04.532Z,7.80
2023-05-18T03:21:04.524Z,7.83
2023-05-18T03:22:04.537Z,7.78
2023-05-18T03:23:04.550Z,7.74
2023-05-18T03:24:04.567Z,7.70
2023-05-18T03:25:04.578Z,7.69
2023-05-18T03:26:04.593Z,7.72
2023-05-18T03:27:04.608Z,7.75
2023-05-18T03:28:04.619Z,7.75
2023-05-18T03:29:04.639Z,7.78
2023-05-18T03:30:04.652Z,7.77
2023-05-18T03:31:04.675Z,7.75
2023-05-18T03:32:04.667Z,7.78
2023-05-18T03:33:04.730Z,7.64
2023-05-18T03:34:04.730Z,7.61
2023-05-18T03:35:04.708Z,7.67
2023-05-18T03:36:04.727Z,7.64
2023-05-18T03:37:04.753Z,7.67
2023-05-18T03:38:04.750Z,7.61
2023-05-18T03:39:04.762Z,7.67
2023-05-18T03:40:04.776Z,7.61
2023-05-18T03:41:04.798Z,7.70
2023-05-18T03:42:04.804Z,7.70
2023-05-18T03:43:04.818Z,7.69
2023-05-18T03:44:04.829Z,7.67
2023-05-18T03:45:04.838Z,7.64
2023-05-18T03:46:04.863Z,7.69
2023-05-18T03:47:04.868Z,7.70
2023-05-18T03:48:04.932Z,7.69
2023-05-18T03:49:04.906Z,7.62
2023-05-18T03:50:04.909Z,7.70
2023-05-18T03:51:04.927Z,7.70
2023-05-18T03:52:04.936Z,7.66
2023-05-18T03:53:04.951Z,7.64
2023-05-18T03:54:04.963Z,7.64
2023-05-18T03:55:04.976Z,7.66
2023-05-18T03:56:04.996Z,7.69
2023-05-18T03:57:05.002Z,7.66
2023-05-18T03:58:05.014Z,7.62
2023-05-18T03:59:05.030Z,7.69
2023-05-18T04:00:05.041Z,7.61
2023-05-18T04:01:05.057Z,7.61
2023-05-18T04:02:05.113Z,7.66
2023-05-18T04:03:05.187Z,7.66
2023-05-18T04:04:05.162Z,7.69
2023-05-18T04:05:05.106Z,7.61
2023-05-18T04:06:05.121Z,7.70
2023-05-18T04:07:05.137Z,7.62
2023-05-18T04:08:05.159Z,7.66
2023-05-18T04:09:05.165Z,7.61
2023-05-18T04:10:05.175Z,7.66
2023-05-18T04:11:05.184Z,7.67
2023-05-18T04:12:05.209Z,7.75
2023-05-18T04:13:05.225Z,7.70
2023-05-18T04:14:05.226Z,7.77
2023-05-18T04:15:05.295Z,7.75
2023-05-18T04:16:05.306Z,7.78
2023-05-18T04:17:05.264Z,7.75
2023-05-18T04:18:05.346Z,7.66
2023-05-18T04:19:07.192Z,7.80
2023-05-18T04:20:05.305Z,7.67
2023-05-18T04:21:05.318Z,7.81
2023-05-18T04:22:05.328Z,7.75
2023-05-18T04:23:05.351Z,7.80
2023-05-18T04:24:05.383Z,7.78
2023-05-18T04:25:05.372Z,7.81
2023-05-18T04:26:05.394Z,7.77
2023-05-18T04:27:05.398Z,7.72
2023-05-18T04:28:05.433Z,7.77
2023-05-18T04:29:05.430Z,7.80
2023-05-18T04:30:05.444Z,7.83
2023-05-18T04:31:05.450Z,7.80
2023-05-18T04:32:05.525Z,7.84
2023-05-18T04:33:05.499Z,7.85
2023-05-18T04:34:05.489Z,7.72
2023-05-18T04:35:05.504Z,7.84
2023-05-18T04:36:05.531Z,7.90
2023-05-18T04:37:05.551Z,7.88
2023-05-18T04:38:05.582Z,7.83
2023-05-18T04:39:05.563Z,7.88
2023-05-18T04:40:05.575Z,7.85
2023-05-18T04:41:05.585Z,7.85
2023-05-18T04:42:05.601Z,7.81
2023-05-18T04:43:05.617Z,7.93
2023-05-18T04:44:05.624Z,7.91
2023-05-18T04:45:05.638Z,7.93
2023-05-18T04:46:05.656Z,7.98
2023-05-18T04:47:05.671Z,7.93
2023-05-18T04:48:05.766Z,7.90
2023-05-18T04:49:05.696Z,7.96
2023-05-18T04:50:05.709Z,7.95
2023-05-18T04:51:05.724Z,7.98
2023-05-18T04:52:05.735Z,8.02
2023-05-18T04:53:05.749Z,7.99
2023-05-18T04:54:05.766Z,8.05
2023-05-18T04:55:05.781Z,8.06
2023-05-18T04:56:05.799Z,8.09
2023-05-18T04:57:05.801Z,8.09
2023-05-18T04:58:05.818Z,8.11
2023-05-18T04:59:05.832Z,8.11
2023-05-18T05:00:05.846Z,8.14
2023-05-18T05:01:05.912Z,8.18
2023-05-18T05:02:05.883Z,8.20
2023-05-18T05:03:06.071Z,8.18
2023-05-18T05:04:05.895Z,8.23
2023-05-18T05:05:05.912Z,8.16
2023-05-18T05:06:05.920Z,8.23
2023-05-18T05:07:05.945Z,8.20
2023-05-18T05:08:05.947Z,8.24
2023-05-18T05:09:05.959Z,8.28
2023-05-18T05:10:05.974Z,8.24
2023-05-18T05:11:05.998Z,8.28
2023-05-18T05:12:06.005Z,8.34
2023-05-18T05:13:06.013Z,8.24
2023-05-18T05:14:06.027Z,8.24
2023-05-18T05:15:06.051Z,8.26
2023-05-18T05:16:06.113Z,8.41
2023-05-18T05:17:06.072Z,8.35
2023-05-18T05:18:06.103Z,8.35
2023-05-18T05:19:06.161Z,8.39
2023-05-18T05:20:06.108Z,8.34
2023-05-18T05:21:06.121Z,8.49
2023-05-18T05:22:06.136Z,8.56
2023-05-18T05:23:06.191Z,8.56
2023-05-18T05:24:06.168Z,8.53
2023-05-18T05:25:06.388Z,8.59
2023-05-18T05:26:06.193Z,8.64
2023-05-18T05:27:06.208Z,8.72
2023-05-18T05:28:06.220Z,8.79
2023-05-18T05:29:06.247Z,8.87
2023-05-18T05:30:06.253Z,8.99
2023-05-18T05:31:06.266Z,8.99
2023-05-18T05:32:06.280Z,9.18
2023-05-18T05:33:06.352Z,9.29
2023-05-18T05:34:06.302Z,9.27
2023-05-18T05:35:06.338Z,9.47
2023-05-18T05:36:06.341Z,9.54
2023-05-18T05:37:06.367Z,9.63
2023-05-18T05:38:06.433Z,9.76
2023-05-18T05:39:06.387Z,9.72
2023-05-18T05:40:06.564Z,9.81
2023-05-18T05:41:06.416Z,9.88
2023-05-18T05:42:06.434Z,9.95
2023-05-18T05:43:06.452Z,9.97
2023-05-18T05:44:06.463Z,10.03
2023-05-18T05:45:06.490Z,10.10
2023-05-18T05:46:06.491Z,10.10
2023-05-18T05:47:06.609Z,10.07
2023-05-18T05:48:06.580Z,10.10
2023-05-18T05:49:06.571Z,10.24
2023-05-18T05:50:06.568Z,10.23
2023-05-18T05:51:06.572Z,10.28
2023-05-18T05:52:06.594Z,10.28
2023-05-18T05:53:06.608Z,10.33
2023-05-18T05:54:07.459Z,10.34
2023-05-18T05:55:06.636Z,10.41
2023-05-18T05:56:06.652Z,10.34
2023-05-18T05:57:06.669Z,10.28
2023-05-18T05:58:06.681Z,10.38
2023-05-18T05:59:06.702Z,10.41
2023-05-18T06:00:06.714Z,10.33
2023-05-18T06:01:06.728Z,10.30
2023-05-18T06:02:06.755Z,10.43
2023-05-18T06:03:06.804Z,10.41
2023-05-18T06:04:06.848Z,10.45
2023-05-18T06:05:06.793Z,10.45
2023-05-18T06:06:06.810Z,10.43
2023-05-18T06:07:06.827Z,10.46
2023-05-18T06:08:06.840Z,10.57
2023-05-18T06:09:06.857Z,10.46
2023-05-18T06:10:06.877Z,10.61
2023-05-18T06:11:07.787Z,10.59
2023-05-18T06:12:06.903Z,10.69
2023-05-18T06:13:06.926Z,10.68
2023-05-18T06:14:06.950Z,10.64
2023-05-18T06:15:06.953Z,10.75
2023-05-18T06:16:07.004Z,10.75
2023-05-18T06:17:07.001Z,10.82
2023-05-18T06:18:07.056Z,10.80
2023-05-18T06:19:07.126Z,10.90
2023-05-18T06:20:07.042Z,11.07
2023-05-18T06:21:07.054Z,11.05
2023-05-18T06:22:07.076Z,11.16
2023-05-18T06:23:07.081Z,11.25
2023-05-18T06:24:07.096Z,11.35
2023-05-18T06:25:07.146Z,11.44
2023-05-18T06:26:07.152Z,11.59
2023-05-18T06:27:07.146Z,11.80
2023-05-18T06:28:07.163Z,11.89
2023-05-18T06:29:07.190Z,12.12
2023-05-18T06:30:07.204Z,12.36
2023-05-18T06:31:07.252Z,12.63
2023-05-18T06:32:07.293Z,12.72
2023-05-18T06:33:07.307Z,13.01
2023-05-18T06:34:07.273Z,13.21
2023-05-18T06:35:07.319Z,13.42
2023-05-18T06:36:07.323Z,13.68
2023-05-18T06:37:07.333Z,13.93
2023-05-18T06:38:07.349Z,14.01
2023-05-18T06:39:07.371Z,14.23
2023-05-18T06:40:07.409Z,14.56
2023-05-18T06:41:07.420Z,14.77
2023-05-18T06:42:07.461Z,14.96
2023-05-18T06:43:07.455Z,15.18
2023-05-18T06:44:07.479Z,15.33
2023-05-18T06:45:07.490Z,15.66
2023-05-18T06:46:07.553Z,15.87
2023-05-18T06:47:07.547Z,16.05
2023-05-18T06:48:07.647Z,16.24
2023-05-18T06:49:07.588Z,16.37
2023-05-18T06:50:07.598Z,16.46
2023-05-18T06:51:07.630Z,16.72
2023-05-18T06:52:07.648Z,16.84
2023-05-18T06:53:07.669Z,17.01
2023-05-18T06:54:07.693Z,17.19
2023-05-18T06:55:07.722Z,17.22
2023-05-18T06:56:07.730Z,17.50
2023-05-18T06:57:07.756Z,17.57
2023-05-18T06:58:07.776Z,17.68
2023-05-18T06:59:07.801Z,17.84
2023-05-18T07:00:07.822Z,17.90
2023-05-18T07:01:07.877Z,18.03
2023-05-18T07:02:07.863Z,18.13
2023-05-18T07:03:08.006Z,18.19
2023-05-18T07:04:08.128Z,18.16
2023-05-18T07:05:07.949Z,18.21
2023-05-18T07:06:07.968Z,18.46
2023-05-18T07:07:07.992Z,18.52
2023-05-18T07:08:08.082Z,18.63
2023-05-18T07:09:08.048Z,18.79
2023-05-18T07:10:08.060Z,18.82
2023-05-18T07:11:08.076Z,18.85
2023-05-18T07:12:08.102Z,18.98
2023-05-18T07:13:08.122Z,19.09
2023-05-18T07:14:08.149Z,19.16
2023-05-18T07:15:08.173Z,19.27
2023-05-18T07:16:08.303Z,19.24
2023-05-18T07:17:08.219Z,19.39
2023-05-18T07:18:08.297Z,19.41
2023-05-18T07:19:08.373Z,19.55
2023-05-18T07:20:08.298Z,19.62
2023-05-18T07:21:08.310Z,19.75
2023-05-18T07:22:08.353Z,19.67
2023-05-18T07:23:08.363Z,19.81
2023-05-18T07:24:08.396Z,19.74
2023-05-18T07:25:08.410Z,19.71
2023-05-18T07:26:08.435Z,19.59
2023-05-18T07:27:08.459Z,19.75
2023-05-18T07:28:08.488Z,19.74
2023-05-18T07:29:08.508Z,19.87
2023-05-18T07:30:08.538Z,19.96
2023-05-18T07:31:08.600Z,20.03
2023-05-18T07:32:08.587Z,20.14
2023-05-18T07:33:08.690Z,20.12
2023-05-18T07:34:08.629Z,20.24
2023-05-18T07:35:08.663Z,20.32
2023-05-18T07:36:08.690Z,20.24
2023-05-18T07:37:08.708Z,20.39
2023-05-18T07:38:08.734Z,20.40
2023-05-18T07:39:08.764Z,20.53
2023-05-18T07:40:08.790Z,20.50
2023-05-18T07:41:08.824Z,20.55
2023-05-18T07:42:08.837Z,20.46
2023-05-18T07:43:08.870Z,20.08
2023-05-18T07:44:08.886Z,20.15
2023-05-18T07:45:08.913Z,19.99
2023-05-18T07:46:08.945Z,19.90
2023-05-18T07:47:09.111Z,19.85
2023-05-18T07:48:09.029Z,19.70
2023-05-18T07:49:09.018Z,19.56
2023-05-18T07:50:09.043Z,19.42
2023-05-18T07:51:09.069Z,19.55
2023-05-18T07:52:09.102Z,19.44
2023-05-18T07:53:09.113Z,19.23
2023-05-18T07:54:09.158Z,19.29
2023-05-18T07:55:09.162Z,19.27
2023-05-18T07:56:09.180Z,19.38
2023-05-18T07:57:09.203Z,19.45
2023-05-18T07:58:09.231Z,19.57
2023-05-18T07:59:09.259Z,19.57
2023-05-18T08:00:09.277Z,19.56
2023-05-18T08:01:09.312Z,19.34
2023-05-18T08:02:09.342Z,19.35
2023-05-18T08:03:09.416Z,19.39
2023-05-18T08:04:09.482Z,19.44
2023-05-18T08:05:09.404Z,19.34
2023-05-18T08:06:09.429Z,19.26
2023-05-18T08:07:09.455Z,19.23
2023-05-18T08:08:09.490Z,19.29
2023-05-18T08:09:09.525Z,19.39
2023-05-18T08:10:09.529Z,19.41
2023-05-18T08:11:09.567Z,19.35
2023-05-18T08:12:09.591Z,19.42
2023-05-18T08:13:09.607Z,19.37
2023-05-18T08:14:09.632Z,19.39
2023-05-18T08:15:09.657Z,19.37
2023-05-18T08:16:12.199Z,19.29
2023-05-18T08:17:09.772Z,19.39
2023-05-18T08:18:09.797Z,19.47
2023-05-18T08:19:09.845Z,19.42
2023-05-18T08:20:09.788Z,19.48
2023-05-18T08:21:10.180Z,19.38
2023-05-18T08:22:09.826Z,19.38
2023-05-18T08:23:09.854Z,19.19
2023-05-18T08:24:09.885Z,19.29
2023-05-18T08:25:09.907Z,19.19
2023-05-18T08:26:11.421Z,19.19
2023-05-18T08:27:09.953Z,19.27
2023-05-18T08:28:09.978Z,19.34
2023-05-18T08:29:10.003Z,19.39
2023-05-18T08:30:10.084Z,19.39
2023-05-18T08:31:10.054Z,19.24
2023-05-18T08:32:10.121Z,19.26
2023-05-18T08:33:10.135Z,19.23
2023-05-18T08:34:10.128Z,19.42
2023-05-18T08:35:10.192Z,19.32
2023-05-18T08:36:10.182Z,19.48
2023-05-18T08:37:10.201Z,19.47
2023-05-18T08:38:10.228Z,19.60
2023-05-18T08:39:10.257Z,19.70
2023-05-18T08:40:10.283Z,19.78
2023-05-18T08:41:10.309Z,19.79
2023-05-18T08:42:10.335Z,19.62
2023-05-18T08:43:10.361Z,19.66
2023-05-18T08:44:10.385Z,19.62
2023-05-18T08:45:10.410Z,19.63
2023-05-18T08:46:10.437Z,19.75
2023-05-18T08:47:10.461Z,19.57
2023-05-18T08:48:10.573Z,19.53
2023-05-18T08:49:10.696Z,19.49
2023-05-18T08:50:10.535Z,19.53
2023-05-18T08:51:10.566Z,19.38
2023-05-18T08:52:10.586Z,19.16
2023-05-18T08:53:10.612Z,18.98
2023-05-18T08:54:10.634Z,18.96
2023-05-18T08:55:12.182Z,19.08
2023-05-18T08:56:10.696Z,19.11
2023-05-18T08:57:10.707Z,19.17
2023-05-18T08:58:10.739Z,19.24
2023-05-18T08:59:10.756Z,19.20
2023-05-18T09:00:10.787Z,19.29
2023-05-18T09:01:10.852Z,18.94
2023-05-18T09:02:10.917Z,18.96
2023-05-18T09:03:10.915Z,19.05
2023-05-18T09:04:10.883Z,18.98
2023-05-18T09:05:10.963Z,18.92
2023-05-18T09:06:10.940Z,18.61
2023-05-18T09:07:10.967Z,18.30
2023-05-18T09:08:10.987Z,18.39
2023-05-18T09:09:11.027Z,18.30
2023-05-18T09:10:11.031Z,18.30
2023-05-18T09:11:11.068Z,18.18
2023-05-18T09:12:11.079Z,18.19
2023-05-18T09:13:11.111Z,18.00
2023-05-18T09:14:11.120Z,17.95
2023-05-18T09:15:11.144Z,17.80
2023-05-18T09:16:11.209Z,17.69
2023-05-18T09:17:11.205Z,17.63
2023-05-18T09:18:11.242Z,17.63
2023-05-18T09:19:11.315Z,17.60
2023-05-18T09:20:11.259Z,17.63
2023-05-18T09:21:11.284Z,17.56
2023-05-18T09:22:11.306Z,17.57
2023-05-18T09:23:11.328Z,17.44
2023-05-18T09:24:11.346Z,17.38
2023-05-18T09:25:11.382Z,17.31
2023-05-18T09:26:11.470Z,17.27
2023-05-18T09:27:11.424Z,17.46
2023-05-18T09:28:11.437Z,17.42
2023-05-18T09:29:11.461Z,17.44
2023-05-18T09:30:11.542Z,17.56
2023-05-18T09:31:11.563Z,17.65
2023-05-18T09:32:11.524Z,17.78
2023-05-18T09:33:11.590Z,17.90
2023-05-18T09:34:11.614Z,18.03
2023-05-18T09:35:11.649Z,18.30
2023-05-18T09:36:11.625Z,18.46
2023-05-18T09:37:11.648Z,18.76
2023-05-18T09:38:11.670Z,18.79
2023-05-18T09:39:11.698Z,18.94
2023-05-18T09:40:11.717Z,18.96
2023-05-18T09:41:11.744Z,19.01
2023-05-18T09:42:11.778Z,19.05
2023-05-18T09:43:11.794Z,19.12
2023-05-18T09:44:11.817Z,19.09
2023-05-18T09:45:11.844Z,19.16
2023-05-18T09:46:11.919Z,19.15
2023-05-18T09:47:11.912Z,19.16
2023-05-18T09:48:11.967Z,19.16
2023-05-18T09:49:11.935Z,19.15
2023-05-18T09:50:11.967Z,19.20
2023-05-18T09:51:11.983Z,19.22
2023-05-18T09:52:12.014Z,19.16
2023-05-18T09:53:12.031Z,19.22
2023-05-18T09:54:12.059Z,19.29
2023-05-18T09:55:12.092Z,19.35
2023-05-18T09:56:12.160Z,19.39
2023-05-18T09:57:12.126Z,19.48
2023-05-18T09:58:12.153Z,19.59
2023-05-18T09:59:12.189Z,19.77
2023-05-18T10:00:12.207Z,19.84
2023-05-18T10:01:12.277Z,19.82
2023-05-18T10:02:12.299Z,19.85
2023-05-18T10:03:12.281Z,19.93
2023-05-18T10:04:12.329Z,19.87
2023-05-18T10:05:12.332Z,19.92
2023-05-18T10:06:12.369Z,19.94
2023-05-18T10:07:12.407Z,20.02
2023-05-18T10:08:12.411Z,20.11
2023-05-18T10:09:12.435Z,20.19
2023-05-18T10:10:12.490Z,20.24
2023-05-18T10:11:12.487Z,20.44
2023-05-18T10:12:12.519Z,20.58
2023-05-18T10:13:12.543Z,20.75
2023-05-18T10:14:12.589Z,21.04
2023-05-18T10:15:12.596Z,21.03
2023-05-18T10:16:12.653Z,21.05
2023-05-18T10:17:15.570Z,21.23
2023-05-18T10:18:12.766Z,21.23
2023-05-18T10:19:12.774Z,21.15
2023-05-18T10:20:12.736Z,21.25
2023-05-18T10:21:12.786Z,21.19
2023-05-18T10:22:12.809Z,21.22
2023-05-18T10:23:12.814Z,21.35
2023-05-18T10:24:12.848Z,21.30
2023-05-18T10:25:12.866Z,21.51
2023-05-18T10:26:12.901Z,21.75
2023-05-18T10:27:12.922Z,22.08
2023-05-18T10:28:12.958Z,22.31
2023-05-18T10:29:12.994Z,22.28
2023-05-18T10:30:13.023Z,22.43
2023-05-18T10:31:13.089Z,22.74
2023-05-18T10:32:13.109Z,22.93
2023-05-18T10:33:21.013Z,23.18
2023-05-18T10:34:13.129Z,23.36
2023-05-18T10:35:13.155Z,23.54
2023-05-18T10:36:13.196Z,23.79
2023-05-18T10:37:13.210Z,24.03
2023-05-18T10:38:13.252Z,24.25
2023-05-18T10:39:13.284Z,24.44
2023-05-18T10:40:13.315Z,24.61
2023-05-18T10:41:13.348Z,24.99
2023-05-18T10:42:13.370Z,25.19
2023-05-18T10:43:13.397Z,25.33
2023-05-18T10:44:13.425Z,25.46
2023-05-18T10:45:13.460Z,25.74
2023-05-18T10:46:13.552Z,25.86
2023-05-18T10:47:13.545Z,25.93
2023-05-18T10:48:13.567Z,26.29
2023-05-18T10:49:13.587Z,26.42
2023-05-18T10:50:13.626Z,26.22
2023-05-18T10:51:13.653Z,26.27
2023-05-18T10:52:13.685Z,26.23
2023-05-18T10:53:13.716Z,26.13
2023-05-18T10:54:13.749Z,25.83
2023-05-18T10:55:13.800Z,25.54
2023-05-18T10:56:13.808Z,25.31
2023-05-18T10:57:13.840Z,25.31
2023-05-18T10:58:13.878Z,25.40
2023-05-18T10:59:13.904Z,25.46
2023-05-18T11:00:13.932Z,25.46
2023-05-18T11:01:14.021Z,25.62
2023-05-18T11:02:14.119Z,25.55
2023-05-18T11:03:14.056Z,25.67
2023-05-18T11:04:14.069Z,25.73
2023-05-18T11:05:14.183Z,25.92
2023-05-18T11:06:14.113Z,26.03
2023-05-18T11:07:14.162Z,26.08
2023-05-18T11:08:14.172Z,26.24
2023-05-18T11:09:14.206Z,26.04
2023-05-18T11:10:14.250Z,26.10
2023-05-18T11:11:15.577Z,26.22
2023-05-18T11:12:14.327Z,26.36
2023-05-18T11:13:14.363Z,26.51
2023-05-18T11:14:14.365Z,26.48
2023-05-18T11:15:14.397Z,26.49
2023-05-18T11:16:14.493Z,26.31
2023-05-18T11:17:14.459Z,26.24
2023-05-18T11:18:14.532Z,26.16
2023-05-18T11:19:14.547Z,25.98
2023-05-18T11:20:14.588Z,25.86
2023-05-18T11:21:14.580Z,25.74
2023-05-18T11:22:14.616Z,25.56
2023-05-18T11:23:14.647Z,25.40
2023-05-18T11:24:14.670Z,25.29
2023-05-18T11:25:14.700Z,25.24
2023-05-18T11:26:14.735Z,24.88
2023-05-18T11:27:14.773Z,24.63
2023-05-18T11:28:14.800Z,24.61
2023-05-18T11:29:14.813Z,24.74
2023-05-18T11:30:15.842Z,24.78
2023-05-18T11:31:14.878Z,24.97
2023-05-18T11:32:19.032Z,25.01
2023-05-18T11:33:15.092Z,24.85
2023-05-18T11:34:14.961Z,24.89
2023-05-18T11:35:14.984Z,24.89
2023-05-18T11:36:15.157Z,24.82
2023-05-18T11:37:15.049Z,24.63
2023-05-18T11:38:15.067Z,24.47
2023-05-18T11:39:15.095Z,24.19
2023-05-18T11:40:15.161Z,24.03
2023-05-18T11:41:15.149Z,23.81
2023-05-18T11:42:15.175Z,23.62
2023-05-18T11:43:15.203Z,23.45
2023-05-18T11:44:15.303Z,23.25
2023-05-18T11:45:15.260Z,23.04
2023-05-18T11:46:15.285Z,22.86
2023-05-18T11:47:15.310Z,22.70
2023-05-18T11:48:15.401Z,22.62
2023-05-18T11:49:15.397Z,22.36
2023-05-18T11:50:15.388Z,22.22
2023-05-18T11:51:15.428Z,22.26
2023-05-18T11:52:15.437Z,22.26
2023-05-18T11:53:15.532Z,22.33
2023-05-18T11:54:15.492Z,22.41
2023-05-18T11:55:15.516Z,22.61
2023-05-18T11:56:15.539Z,22.70
2023-05-18T11:57:15.608Z,22.96
2023-05-18T11:58:15.588Z,22.92
2023-05-18T11:59:15.641Z,22.86
2023-05-18T12:00:15.655Z,22.76
2023-05-18T12:01:15.673Z,22.93
2023-05-18T12:02:15.735Z,22.98
2023-05-18T12:03:15.845Z,23.21
2023-05-18T12:04:15.851Z,23.40
2023-05-18T12:05:15.777Z,23.64
2023-05-18T12:06:15.803Z,23.91
2023-05-18T12:07:15.833Z,24.22
2023-05-18T12:08:15.937Z,24.47
2023-05-18T12:09:15.894Z,24.63
2023-05-18T12:10:15.920Z,24.96
2023-05-18T12:11:15.946Z,24.99
2023-05-18T12:12:15.974Z,25.36
2023-05-18T12:13:16.004Z,25.33
2023-05-18T12:14:16.036Z,25.31
2023-05-18T12:15:17.446Z,25.31
2023-05-18T12:16:16.136Z,25.33
2023-05-18T12:17:16.122Z,25.33
2023-05-18T12:18:16.221Z,25.40
2023-05-18T12:19:16.217Z,25.48
2023-05-18T12:20:16.206Z,25.55
2023-05-18T12:21:16.229Z,25.70
2023-05-18T12:22:16.259Z,25.76
2023-05-18T12:23:16.288Z,25.73
2023-05-18T12:24:16.316Z,25.63
2023-05-18T12:25:16.348Z,25.49
2023-05-18T12:26:16.374Z,25.39
2023-05-18T12:27:16.403Z,25.30
2023-05-18T12:28:16.458Z,25.19
2023-05-18T12:29:16.461Z,25.00
2023-05-18T12:30:16.521Z,24.78
2023-05-18T12:31:16.539Z,24.82
2023-05-18T12:32:16.545Z,24.71
2023-05-18T12:33:16.670Z,24.44
2023-05-18T12:34:16.600Z,24.26
2023-05-18T12:35:16.626Z,24.14
2023-05-18T12:36:16.657Z,24.06
2023-05-18T12:37:16.742Z,23.92
2023-05-18T12:38:16.709Z,23.55
2023-05-18T12:39:16.757Z,23.45
2023-05-18T12:40:16.797Z,23.32
2023-05-18T12:41:16.793Z,23.39
2023-05-18T12:42:16.842Z,23.29
2023-05-18T12:43:16.842Z,23.37
2023-05-18T12:44:16.915Z,23.42
2023-05-18T12:45:16.896Z,23.49
2023-05-18T12:46:16.970Z,23.55
2023-05-18T12:47:16.952Z,23.74
2023-05-18T12:48:17.034Z,23.82
2023-05-18T12:49:17.001Z,23.95
2023-05-18T12:50:17.037Z,23.99
2023-05-18T12:51:17.058Z,24.13
2023-05-18T12:52:17.077Z,24.16
2023-05-18T12:53:17.125Z,24.18
2023-05-18T12:54:17.130Z,24.21
2023-05-18T12:55:17.158Z,24.13
2023-05-18T12:56:17.191Z,24.09
2023-05-18T12:57:17.212Z,24.13
2023-05-18T12:58:17.245Z,24.09
2023-05-18T12:59:17.266Z,23.94
2023-05-18T13:00:17.290Z,23.77
2023-05-18T13:01:17.334Z,23.74
2023-05-18T13:02:17.346Z,23.64
2023-05-18T13:03:17.549Z,23.54